sensor_id;sensor_type;location;lat;lon;timestamp;pressure;altitude;pressure_sealevel;temperature;humidity
69717;BME280;67420;46.144;19.666;2023-07-31T00:03:26;99856.06;;;25.09;54.37
69717;BME280;67420;46.144;19.666;2023-07-31T00:13:28;99864.34;;;25.15;54.47
69717;BME280;67420;46.144;19.666;2023-07-31T00:23:30;99870.06;;;25.12;54.63
69717;BME280;67420;46.144;19.666;2023-07-31T00:33:34;99861.28;;;25.10;54.48
69717;BME280;67420;46.144;19.666;2023-07-31T00:43:37;99864.66;;;25.12;54.76
69717;BME280;67420;46.144;19.666;2023-07-31T00:53:40;99851.84;;;25.14;54.46
69717;BME280;67420;46.144;19.666;2023-07-31T01:03:45;99853.88;;;25.12;54.18
69717;BME280;67420;46.144;19.666;2023-07-31T01:13:47;99841.56;;;25.10;54.64
69717;BME280;67420;46.144;19.666;2023-07-31T01:34:01;99837.69;;;25.12;54.60
69717;BME280;67420;46.144;19.666;2023-07-31T01:44:04;99843.09;;;25.12;54.43
69717;BME280;67420;46.144;19.666;2023-07-31T01:54:06;99852.19;;;25.11;54.57
69717;BME280;67420;46.144;19.666;2023-07-31T02:04:08;99855.38;;;25.07;54.65
69717;BME280;67420;46.144;19.666;2023-07-31T02:14:10;99867.69;;;25.09;54.50
69717;BME280;67420;46.144;19.666;2023-07-31T02:24:12;99859.09;;;25.06;54.56
69717;BME280;67420;46.144;19.666;2023-07-31T02:34:14;99867.69;;;25.09;54.83
69717;BME280;67420;46.144;19.666;2023-07-31T02:44:16;99870.22;;;25.11;54.66
69717;BME280;67420;46.144;19.666;2023-07-31T02:54:19;99858.91;;;25.07;54.81
69717;BME280;67420;46.144;19.666;2023-07-31T03:04:23;99868.53;;;25.10;54.86
69717;BME280;67420;46.144;19.666;2023-07-31T03:14:25;99874.09;;;25.08;54.75
69717;BME280;67420;46.144;19.666;2023-07-31T03:24:28;99890.94;;;25.10;54.94
69717;BME280;67420;46.144;19.666;2023-07-31T03:34:30;99898.19;;;25.10;54.64
69717;BME280;67420;46.144;19.666;2023-07-31T03:44:33;99902.75;;;25.09;54.83
69717;BME280;67420;46.144;19.666;2023-07-31T03:54:35;99904.59;;;25.09;54.71
69717;BME280;67420;46.144;19.666;2023-07-31T04:04:37;99914.38;;;25.10;54.56
69717;BME280;67420;46.144;19.666;2023-07-31T04:14:39;99918.94;;;25.09;54.81
69717;BME280;67420;46.144;19.666;2023-07-31T04:24:42;99932.25;;;25.11;54.72
69717;BME280;67420;46.144;19.666;2023-07-31T04:34:44;99936.81;;;25.10;54.88
69717;BME280;67420;46.144;19.666;2023-07-31T04:44:46;99935.28;;;25.08;55.16
69717;BME280;67420;46.144;19.666;2023-07-31T04:54:48;99932.56;;;25.08;54.61
69717;BME280;67420;46.144;19.666;2023-07-31T05:04:50;99935.97;;;25.10;54.67
69717;BME280;67420;46.144;19.666;2023-07-31T05:14:52;99943.88;;;25.11;54.75
69717;BME280;67420;46.144;19.666;2023-07-31T05:24:54;99935.44;;;25.06;54.75
69717;BME280;67420;46.144;19.666;2023-07-31T05:34:56;99948.44;;;25.11;54.59
69717;BME280;67420;46.144;19.666;2023-07-31T05:44:58;99946.75;;;25.10;54.48
69717;BME280;67420;46.144;19.666;2023-07-31T05:55:00;99952.13;;;25.10;54.42
69717;BME280;67420;46.144;19.666;2023-07-31T06:05:03;99968.16;;;25.11;54.48
69717;BME280;67420;46.144;19.666;2023-07-31T06:15:08;99946.38;;;25.05;54.94
69717;BME280;67420;46.144;19.666;2023-07-31T06:25:11;99971.69;;;25.12;54.37
69717;BME280;67420;46.144;19.666;2023-07-31T06:35:16;99981.66;;;25.11;54.82
69717;BME280;67420;46.144;19.666;2023-07-31T06:45:18;99986.53;;;25.08;54.95
69717;BME280;67420;46.144;19.666;2023-07-31T06:55:21;100002.22;;;25.12;54.41
69717;BME280;67420;46.144;19.666;2023-07-31T07:05:23;99994.28;;;25.11;54.57
69717;BME280;67420;46.144;19.666;2023-07-31T07:15:26;99987.38;;;25.08;54.52
69717;BME280;67420;46.144;19.666;2023-07-31T07:25:28;99988.72;;;25.12;54.53
69717;BME280;67420;46.144;19.666;2023-07-31T07:35:30;100001.22;;;25.13;54.65
69717;BME280;67420;46.144;19.666;2023-07-31T07:45:34;99995.97;;;25.12;54.57
69717;BME280;67420;46.144;19.666;2023-07-31T07:55:36;99994.81;;;25.14;54.62
69717;BME280;67420;46.144;19.666;2023-07-31T08:05:38;99995.13;;;25.11;54.59
69717;BME280;67420;46.144;19.666;2023-07-31T08:15:43;100006.28;;;25.16;54.58
69717;BME280;67420;46.144;19.666;2023-07-31T08:25:45;100005.44;;;25.16;54.58
69717;BME280;67420;46.144;19.666;2023-07-31T08:35:47;100003.75;;;25.15;54.41
69717;BME280;67420;46.144;19.666;2023-07-31T08:45:50;100008.28;;;25.14;54.49
69717;BME280;67420;46.144;19.666;2023-07-31T08:55:53;100009.81;;;25.17;54.74
69717;BME280;67420;46.144;19.666;2023-07-31T09:05:56;100001.72;;;25.17;54.56
69717;BME280;67420;46.144;19.666;2023-07-31T09:15:59;100000.38;;;25.21;54.37
69717;BME280;67420;46.144;19.666;2023-07-31T09:26:01;100002.25;;;25.20;54.12
69717;BME280;67420;46.144;19.666;2023-07-31T09:36:05;100000.38;;;25.21;54.30
69717;BME280;67420;46.144;19.666;2023-07-31T09:46:13;99980.31;;;25.23;53.78
69717;BME280;67420;46.144;19.666;2023-07-31T09:56:16;99978.47;;;25.24;54.23
69717;BME280;67420;46.144;19.666;2023-07-31T10:06:18;99965.66;;;25.18;54.30
69717;BME280;67420;46.144;19.666;2023-07-31T10:16:22;99959.56;;;25.16;54.09
69717;BME280;67420;46.144;19.666;2023-07-31T10:26:24;99968.69;;;25.23;54.34
69717;BME280;67420;46.144;19.666;2023-07-31T10:36:28;99958.75;;;25.15;54.38
69717;BME280;67420;46.144;19.666;2023-07-31T10:46:30;99954.50;;;25.21;54.00
69717;BME280;67420;46.144;19.666;2023-07-31T10:56:37;99956.41;;;25.20;54.05
69717;BME280;67420;46.144;19.666;2023-07-31T11:06:55;99957.19;;;25.21;54.24
69717;BME280;67420;46.144;19.666;2023-07-31T11:16:57;99956.56;;;25.19;54.20
69717;BME280;67420;46.144;19.666;2023-07-31T11:26:58;99929.59;;;25.19;54.06
69717;BME280;67420;46.144;19.666;2023-07-31T11:37:02;99931.28;;;25.20;54.31
69717;BME280;67420;46.144;19.666;2023-07-31T11:47:04;99929.59;;;25.19;54.15
69717;BME280;67420;46.144;19.666;2023-07-31T11:57:06;99906.66;;;25.15;54.09
69717;BME280;67420;46.144;19.666;2023-07-31T12:07:09;99923.19;;;25.20;54.21
69717;BME280;67420;46.144;19.666;2023-07-31T12:17:11;99908.00;;;25.19;54.18
69717;BME280;67420;46.144;19.666;2023-07-31T12:27:15;99893.66;;;25.18;54.15
69717;BME280;67420;46.144;19.666;2023-07-31T12:37:17;99881.88;;;25.19;54.27
69717;BME280;67420;46.144;19.666;2023-07-31T12:47:20;99878.50;;;25.17;54.07
69717;BME280;67420;46.144;19.666;2023-07-31T12:57:22;99876.47;;;25.19;54.17
69717;BME280;67420;46.144;19.666;2023-07-31T13:07:23;99868.38;;;25.19;53.92
69717;BME280;67420;46.144;19.666;2023-07-31T13:17:26;99864.69;;;25.20;54.26
69717;BME280;67420;46.144;19.666;2023-07-31T13:27:28;99855.91;;;25.18;54.01
69717;BME280;67420;46.144;19.666;2023-07-31T13:37:30;99848.66;;;25.19;53.96
69717;BME280;67420;46.144;19.666;2023-07-31T13:47:32;99847.66;;;25.20;54.00
69717;BME280;67420;46.144;19.666;2023-07-31T13:57:34;99837.88;;;25.19;53.83
69717;BME280;67420;46.144;19.666;2023-07-31T14:07:36;99830.28;;;25.14;54.31
69717;BME280;67420;46.144;19.666;2023-07-31T14:17:39;99829.78;;;25.19;54.06
69717;BME280;67420;46.144;19.666;2023-07-31T14:27:42;99819.84;;;25.19;53.94
69717;BME280;67420;46.144;19.666;2023-07-31T14:37:44;99815.44;;;25.18;53.92
69717;BME280;67420;46.144;19.666;2023-07-31T14:47:47;99808.03;;;25.20;53.76
69717;BME280;67420;46.144;19.666;2023-07-31T14:57:49;99798.25;;;25.19;54.10
69717;BME280;67420;46.144;19.666;2023-07-31T15:07:51;99793.03;;;25.18;54.18
69717;BME280;67420;46.144;19.666;2023-07-31T15:17:53;99787.25;;;25.21;54.21
69717;BME280;67420;46.144;19.666;2023-07-31T15:27:57;99767.91;;;25.17;53.97
69717;BME280;67420;46.144;19.666;2023-07-31T15:37:59;99779.16;;;25.21;54.14
69717;BME280;67420;46.144;19.666;2023-07-31T15:48:01;99767.38;;;25.22;54.03
69717;BME280;67420;46.144;19.666;2023-07-31T15:58:03;99756.28;;;25.17;53.79
69717;BME280;67420;46.144;19.666;2023-07-31T16:08:05;99763.00;;;25.21;54.12
69717;BME280;67420;46.144;19.666;2023-07-31T16:18:07;99757.59;;;25.21;53.88
69717;BME280;67420;46.144;19.666;2023-07-31T16:28:09;99749.88;;;25.18;53.86
69717;BME280;67420;46.144;19.666;2023-07-31T16:38:12;99760.28;;;25.21;54.06
69717;BME280;67420;46.144;19.666;2023-07-31T16:48:13;99770.44;;;25.19;53.68
69717;BME280;67420;46.144;19.666;2023-07-31T16:58:16;99772.97;;;25.20;53.95
69717;BME280;67420;46.144;19.666;2023-07-31T17:08:17;99775.66;;;25.20;53.84
69717;BME280;67420;46.144;19.666;2023-07-31T17:18:20;99772.47;;;25.17;54.19
69717;BME280;67420;46.144;19.666;2023-07-31T17:28:22;99783.56;;;25.22;54.10
69717;BME280;67420;46.144;19.666;2023-07-31T17:38:24;99780.84;;;25.22;53.88
69717;BME280;67420;46.144;19.666;2023-07-31T17:48:26;99777.84;;;25.17;54.09
69717;BME280;67420;46.144;19.666;2023-07-31T17:58:28;99797.03;;;25.22;53.87
69717;BME280;67420;46.144;19.666;2023-07-31T18:08:30;99808.84;;;25.21;54.15
69717;BME280;67420;46.144;19.666;2023-07-31T18:18:32;99819.63;;;25.21;54.26
69717;BME280;67420;46.144;19.666;2023-07-31T18:28:35;99830.63;;;25.19;54.11
69717;BME280;67420;46.144;19.666;2023-07-31T18:38:37;99840.56;;;25.19;54.31
69717;BME280;67420;46.144;19.666;2023-07-31T18:48:39;99854.91;;;25.19;54.13
69717;BME280;67420;46.144;19.666;2023-07-31T18:58:41;99848.81;;;25.17;53.93
69717;BME280;67420;46.144;19.666;2023-07-31T19:08:43;99840.72;;;25.17;54.13
69717;BME280;67420;46.144;19.666;2023-07-31T19:18:45;99848.81;;;25.17;54.09
69717;BME280;67420;46.144;19.666;2023-07-31T19:28:47;99849.66;;;25.18;54.22
69717;BME280;67420;46.144;19.666;2023-07-31T19:38:49;99856.06;;;25.17;54.37
69717;BME280;67420;46.144;19.666;2023-07-31T19:48:52;99850.69;;;25.17;54.23
69717;BME280;67420;46.144;19.666;2023-07-31T19:58:55;99833.13;;;25.13;54.15
69717;BME280;67420;46.144;19.666;2023-07-31T20:08:57;99831.13;;;25.15;54.45
69717;BME280;67420;46.144;19.666;2023-07-31T20:18:59;99838.72;;;25.19;54.55
69717;BME280;67420;46.144;19.666;2023-07-31T20:29:01;99849.84;;;25.16;54.44
69717;BME280;67420;46.144;19.666;2023-07-31T20:39:03;99827.75;;;25.13;54.09
69717;BME280;67420;46.144;19.666;2023-07-31T20:49:06;99831.81;;;25.17;54.29
69717;BME280;67420;46.144;19.666;2023-07-31T20:59:08;99835.34;;;25.17;54.44
69717;BME280;67420;46.144;19.666;2023-07-31T21:09:10;99819.31;;;25.16;54.22
69717;BME280;67420;46.144;19.666;2023-07-31T21:19:13;99805.84;;;25.16;54.30
69717;BME280;67420;46.144;19.666;2023-07-31T21:29:16;99799.59;;;25.15;54.35
69717;BME280;67420;46.144;19.666;2023-07-31T21:39:18;99786.63;;;25.11;54.46
69717;BME280;67420;46.144;19.666;2023-07-31T21:49:20;99769.75;;;25.09;54.64
69717;BME280;67420;46.144;19.666;2023-07-31T21:59:22;99787.28;;;25.13;54.46
69717;BME280;67420;46.144;19.666;2023-07-31T22:09:24;99770.94;;;25.14;54.44
69717;BME280;67420;46.144;19.666;2023-07-31T22:19:26;99768.41;;;25.13;54.39
69717;BME280;67420;46.144;19.666;2023-07-31T22:29:29;99738.25;;;25.09;54.28
69717;BME280;67420;46.144;19.666;2023-07-31T22:39:32;99760.31;;;25.13;54.35
69717;BME280;67420;46.144;19.666;2023-07-31T22:49:34;99752.56;;;25.10;54.43
69717;BME280;67420;46.144;19.666;2023-07-31T22:59:36;99749.53;;;25.13;54.09
69717;BME280;67420;46.144;19.666;2023-07-31T23:09:38;99748.69;;;25.12;54.31
69717;BME280;67420;46.144;19.666;2023-07-31T23:19:40;99744.13;;;25.13;54.22
69717;BME280;67420;46.144;19.666;2023-07-31T23:29:42;99729.31;;;25.09;54.60
69717;BME280;67420;46.144;19.666;2023-07-31T23:39:44;99717.66;;;25.08;54.42
69717;BME280;67420;46.144;19.666;2023-07-31T23:49:47;99720.38;;;25.08;54.45
69717;BME280;67420;46.144;19.666;2023-07-31T23:59:50;99713.13;;;25.09;54.39
